sensor_id;sensor_type;location;lat;lon;timestamp;P1;durP1;ratioP1;P2;durP2;ratioP2
12597;SDS011;6364;53.590;9.956;2023-01-25T00:01:39;43.65;;;21.65;;
12597;SDS011;6364;53.590;9.956;2023-01-25T00:04:04;38.35;;;20.85;;
12597;SDS011;6364;53.590;9.956;2023-01-25T00:06:30;37.85;;;19.90;;
12597;SDS011;6364;53.590;9.956;2023-01-25T00:08:55;37.50;;;20.27;;
12597;SDS011;6364;53.590;9.956;2023-01-25T00:11:20;41.58;;;21.38;;
12597;SDS011;6364;53.590;9.956;2023-01-25T00:13:46;42.25;;;21.95;;
12597;SDS011;6364;53.590;9.956;2023-01-25T00:16:11;36.72;;;20.83;;
12597;SDS011;6364;53.590;9.956;2023-01-25T00:18:36;37.63;;;21.48;;
12597;SDS011;6364;53.590;9.956;2023-01-25T00:21:12;39.17;;;22.00;;
12597;SDS011;6364;53.590;9.956;2023-01-25T00:23:37;40.95;;;22.05;;
12597;SDS011;6364;53.590;9.956;2023-01-25T00:26:03;40.47;;;20.42;;
12597;SDS011;6364;53.590;9.956;2023-01-25T00:28:28;36.00;;;19.77;;
12597;SDS011;6364;53.590;9.956;2023-01-25T00:30:57;36.97;;;19.95;;
12597;SDS011;6364;53.590;9.956;2023-01-25T00:36:27;39.85;;;20.80;;
12597;SDS011;6364;53.590;9.956;2023-01-25T00:39:02;37.00;;;20.45;;
12597;SDS011;6364;53.590;9.956;2023-01-25T00:41:28;38.33;;;19.88;;
12597;SDS011;6364;53.590;9.956;2023-01-25T00:43:53;38.97;;;21.05;;
12597;SDS011;6364;53.590;9.956;2023-01-25T00:46:19;39.83;;;21.75;;
12597;SDS011;6364;53.590;9.956;2023-01-25T00:48:44;40.15;;;20.88;;
12597;SDS011;6364;53.590;9.956;2023-01-25T00:51:09;41.15;;;22.17;;
12597;SDS011;6364;53.590;9.956;2023-01-25T00:53:35;41.25;;;22.40;;
12597;SDS011;6364;53.590;9.956;2023-01-25T00:56:01;42.25;;;22.42;;
12597;SDS011;6364;53.590;9.956;2023-01-25T00:58:26;43.92;;;23.30;;
12597;SDS011;6364;53.590;9.956;2023-01-25T01:00:55;41.30;;;22.75;;
12597;SDS011;6364;53.590;9.956;2023-01-25T01:03:20;46.80;;;23.05;;
12597;SDS011;6364;53.590;9.956;2023-01-25T01:05:46;41.28;;;23.02;;
12597;SDS011;6364;53.590;9.956;2023-01-25T01:08:12;42.88;;;23.27;;
12597;SDS011;6364;53.590;9.956;2023-01-25T01:10:38;43.20;;;22.35;;
12597;SDS011;6364;53.590;9.956;2023-01-25T01:13:03;40.65;;;21.83;;
12597;SDS011;6364;53.590;9.956;2023-01-25T01:15:29;46.00;;;22.50;;
12597;SDS011;6364;53.590;9.956;2023-01-25T01:17:54;44.13;;;21.92;;
12597;SDS011;6364;53.590;9.956;2023-01-25T01:20:19;41.35;;;21.75;;
12597;SDS011;6364;53.590;9.956;2023-01-25T01:22:45;39.58;;;20.95;;
12597;SDS011;6364;53.590;9.956;2023-01-25T01:25:10;40.80;;;19.88;;
12597;SDS011;6364;53.590;9.956;2023-01-25T01:27:37;40.92;;;21.23;;
12597;SDS011;6364;53.590;9.956;2023-01-25T01:30:02;40.70;;;22.40;;
12597;SDS011;6364;53.590;9.956;2023-01-25T01:32:28;39.15;;;20.50;;
12597;SDS011;6364;53.590;9.956;2023-01-25T01:34:53;38.63;;;21.67;;
12597;SDS011;6364;53.590;9.956;2023-01-25T01:37:18;39.88;;;20.88;;
12597;SDS011;6364;53.590;9.956;2023-01-25T01:39:44;41.72;;;21.20;;
12597;SDS011;6364;53.590;9.956;2023-01-25T01:42:09;40.10;;;20.05;;
12597;SDS011;6364;53.590;9.956;2023-01-25T01:44:48;38.60;;;20.40;;
12597;SDS011;6364;53.590;9.956;2023-01-25T01:48:00;40.05;;;21.65;;
12597;SDS011;6364;53.590;9.956;2023-01-25T01:50:07;40.05;;;20.25;;
12597;SDS011;6364;53.590;9.956;2023-01-25T01:52:43;38.95;;;18.98;;
12597;SDS011;6364;53.590;9.956;2023-01-25T01:55:12;42.25;;;20.45;;
12597;SDS011;6364;53.590;9.956;2023-01-25T01:57:43;40.30;;;19.98;;
12597;SDS011;6364;53.590;9.956;2023-01-25T02:00:17;34.10;;;18.65;;
12597;SDS011;6364;53.590;9.956;2023-01-25T02:02:45;34.22;;;18.45;;
12597;SDS011;6364;53.590;9.956;2023-01-25T02:05:17;36.60;;;19.58;;
12597;SDS011;6364;53.590;9.956;2023-01-25T02:07:54;30.92;;;16.65;;
12597;SDS011;6364;53.590;9.956;2023-01-25T02:10:21;31.58;;;17.20;;
12597;SDS011;6364;53.590;9.956;2023-01-25T02:12:48;31.73;;;17.17;;
12597;SDS011;6364;53.590;9.956;2023-01-25T02:15:13;34.78;;;17.92;;
12597;SDS011;6364;53.590;9.956;2023-01-25T02:17:39;32.05;;;17.13;;
12597;SDS011;6364;53.590;9.956;2023-01-25T02:23:24;34.22;;;16.83;;
12597;SDS011;6364;53.590;9.956;2023-01-25T02:25:28;36.03;;;17.90;;
12597;SDS011;6364;53.590;9.956;2023-01-25T02:27:54;38.50;;;17.52;;
12597;SDS011;6364;53.590;9.956;2023-01-25T02:30:23;35.35;;;17.48;;
12597;SDS011;6364;53.590;9.956;2023-01-25T02:32:48;33.80;;;16.73;;
12597;SDS011;6364;53.590;9.956;2023-01-25T02:35:58;33.65;;;16.25;;
12597;SDS011;6364;53.590;9.956;2023-01-25T02:38:10;32.42;;;15.68;;
12597;SDS011;6364;53.590;9.956;2023-01-25T02:41:00;30.00;;;15.20;;
12597;SDS011;6364;53.590;9.956;2023-01-25T02:43:27;37.13;;;15.95;;
12597;SDS011;6364;53.590;9.956;2023-01-25T02:45:56;30.45;;;14.60;;
12597;SDS011;6364;53.590;9.956;2023-01-25T02:48:42;29.35;;;15.15;;
12597;SDS011;6364;53.590;9.956;2023-01-25T02:51:08;33.33;;;15.88;;
12597;SDS011;6364;53.590;9.956;2023-01-25T02:53:34;40.08;;;16.67;;
12597;SDS011;6364;53.590;9.956;2023-01-25T02:55:59;35.03;;;16.83;;
12597;SDS011;6364;53.590;9.956;2023-01-25T02:58:25;35.40;;;15.98;;
12597;SDS011;6364;53.590;9.956;2023-01-25T03:00:50;33.30;;;15.43;;
12597;SDS011;6364;53.590;9.956;2023-01-25T03:03:15;34.15;;;16.35;;
12597;SDS011;6364;53.590;9.956;2023-01-25T03:05:42;36.65;;;16.48;;
12597;SDS011;6364;53.590;9.956;2023-01-25T03:08:07;36.88;;;16.50;;
12597;SDS011;6364;53.590;9.956;2023-01-25T03:10:33;35.28;;;16.00;;
12597;SDS011;6364;53.590;9.956;2023-01-25T03:12:58;36.50;;;16.25;;
12597;SDS011;6364;53.590;9.956;2023-01-25T03:15:23;34.63;;;16.83;;
12597;SDS011;6364;53.590;9.956;2023-01-25T03:17:49;35.38;;;16.45;;
12597;SDS011;6364;53.590;9.956;2023-01-25T03:20:14;40.47;;;16.85;;
12597;SDS011;6364;53.590;9.956;2023-01-25T03:22:39;39.53;;;18.08;;
12597;SDS011;6364;53.590;9.956;2023-01-25T03:25:05;38.78;;;17.75;;
12597;SDS011;6364;53.590;9.956;2023-01-25T03:27:31;38.30;;;18.05;;
12597;SDS011;6364;53.590;9.956;2023-01-25T03:29:56;40.33;;;17.83;;
12597;SDS011;6364;53.590;9.956;2023-01-25T03:32:21;37.72;;;17.17;;
12597;SDS011;6364;53.590;9.956;2023-01-25T03:34:47;34.88;;;16.95;;
12597;SDS011;6364;53.590;9.956;2023-01-25T03:37:12;45.83;;;18.48;;
12597;SDS011;6364;53.590;9.956;2023-01-25T03:39:38;45.05;;;18.15;;
12597;SDS011;6364;53.590;9.956;2023-01-25T03:42:03;38.42;;;17.35;;
12597;SDS011;6364;53.590;9.956;2023-01-25T03:44:28;42.67;;;17.77;;
12597;SDS011;6364;53.590;9.956;2023-01-25T03:46:54;37.28;;;18.00;;
12597;SDS011;6364;53.590;9.956;2023-01-25T03:49:19;39.88;;;17.95;;
12597;SDS011;6364;53.590;9.956;2023-01-25T03:51:44;42.65;;;17.83;;
12597;SDS011;6364;53.590;9.956;2023-01-25T03:54:10;43.50;;;18.52;;
12597;SDS011;6364;53.590;9.956;2023-01-25T03:56:36;42.67;;;18.17;;
12597;SDS011;6364;53.590;9.956;2023-01-25T03:59:01;39.13;;;18.00;;
12597;SDS011;6364;53.590;9.956;2023-01-25T04:01:27;41.97;;;17.83;;
12597;SDS011;6364;53.590;9.956;2023-01-25T04:03:52;42.55;;;18.88;;
12597;SDS011;6364;53.590;9.956;2023-01-25T04:06:18;40.08;;;17.55;;
12597;SDS011;6364;53.590;9.956;2023-01-25T04:08:43;44.30;;;18.63;;
12597;SDS011;6364;53.590;9.956;2023-01-25T04:11:08;45.28;;;19.02;;
12597;SDS011;6364;53.590;9.956;2023-01-25T04:13:34;45.88;;;19.08;;
12597;SDS011;6364;53.590;9.956;2023-01-25T04:16:04;45.88;;;19.42;;
12597;SDS011;6364;53.590;9.956;2023-01-25T04:18:30;44.00;;;18.52;;
12597;SDS011;6364;53.590;9.956;2023-01-25T04:20:56;46.72;;;19.33;;
12597;SDS011;6364;53.590;9.956;2023-01-25T04:23:21;43.92;;;19.10;;
12597;SDS011;6364;53.590;9.956;2023-01-25T04:25:55;47.28;;;20.02;;
12597;SDS011;6364;53.590;9.956;2023-01-25T04:28:21;43.65;;;18.92;;
12597;SDS011;6364;53.590;9.956;2023-01-25T04:30:47;45.53;;;19.50;;
12597;SDS011;6364;53.590;9.956;2023-01-25T04:33:12;41.15;;;18.30;;
12597;SDS011;6364;53.590;9.956;2023-01-25T04:35:38;40.75;;;18.95;;
12597;SDS011;6364;53.590;9.956;2023-01-25T04:38:03;39.13;;;18.20;;
12597;SDS011;6364;53.590;9.956;2023-01-25T04:40:29;39.47;;;18.52;;
12597;SDS011;6364;53.590;9.956;2023-01-25T04:42:55;37.95;;;19.13;;
12597;SDS011;6364;53.590;9.956;2023-01-25T04:45:21;37.17;;;18.17;;
12597;SDS011;6364;53.590;9.956;2023-01-25T04:47:46;37.63;;;18.92;;
12597;SDS011;6364;53.590;9.956;2023-01-25T04:50:12;34.42;;;17.92;;
12597;SDS011;6364;53.590;9.956;2023-01-25T04:52:37;33.15;;;17.02;;
12597;SDS011;6364;53.590;9.956;2023-01-25T04:55:03;37.08;;;19.42;;
12597;SDS011;6364;53.590;9.956;2023-01-25T04:57:28;37.85;;;18.73;;
12597;SDS011;6364;53.590;9.956;2023-01-25T04:59:54;33.75;;;17.90;;
12597;SDS011;6364;53.590;9.956;2023-01-25T05:02:19;30.80;;;17.23;;
12597;SDS011;6364;53.590;9.956;2023-01-25T05:04:44;33.85;;;18.13;;
12597;SDS011;6364;53.590;9.956;2023-01-25T05:07:10;29.25;;;17.25;;
12597;SDS011;6364;53.590;9.956;2023-01-25T05:09:35;34.50;;;18.73;;
12597;SDS011;6364;53.590;9.956;2023-01-25T05:12:00;34.47;;;18.27;;
12597;SDS011;6364;53.590;9.956;2023-01-25T05:14:25;32.00;;;18.02;;
12597;SDS011;6364;53.590;9.956;2023-01-25T05:16:51;32.53;;;18.52;;
12597;SDS011;6364;53.590;9.956;2023-01-25T05:19:16;32.15;;;18.85;;
12597;SDS011;6364;53.590;9.956;2023-01-25T05:21:41;36.65;;;19.23;;
12597;SDS011;6364;53.590;9.956;2023-01-25T05:24:26;36.47;;;18.27;;
12597;SDS011;6364;53.590;9.956;2023-01-25T05:26:52;36.80;;;20.35;;
12597;SDS011;6364;53.590;9.956;2023-01-25T05:29:24;37.30;;;20.38;;
12597;SDS011;6364;53.590;9.956;2023-01-25T05:31:50;35.13;;;20.13;;
12597;SDS011;6364;53.590;9.956;2023-01-25T05:34:15;36.05;;;20.00;;
12597;SDS011;6364;53.590;9.956;2023-01-25T05:36:40;37.25;;;20.30;;
12597;SDS011;6364;53.590;9.956;2023-01-25T05:39:06;38.55;;;19.55;;
12597;SDS011;6364;53.590;9.956;2023-01-25T05:41:32;38.53;;;19.55;;
12597;SDS011;6364;53.590;9.956;2023-01-25T05:43:58;36.95;;;19.92;;
12597;SDS011;6364;53.590;9.956;2023-01-25T05:46:25;34.58;;;19.27;;
12597;SDS011;6364;53.590;9.956;2023-01-25T05:48:51;35.42;;;19.73;;
12597;SDS011;6364;53.590;9.956;2023-01-25T05:51:16;36.17;;;19.38;;
12597;SDS011;6364;53.590;9.956;2023-01-25T05:53:41;34.28;;;19.88;;
12597;SDS011;6364;53.590;9.956;2023-01-25T05:56:07;36.22;;;20.10;;
12597;SDS011;6364;53.590;9.956;2023-01-25T05:58:34;35.15;;;19.50;;
12597;SDS011;6364;53.590;9.956;2023-01-25T06:01:00;35.20;;;19.30;;
12597;SDS011;6364;53.590;9.956;2023-01-25T06:03:25;33.80;;;18.80;;
12597;SDS011;6364;53.590;9.956;2023-01-25T06:05:58;38.42;;;19.25;;
12597;SDS011;6364;53.590;9.956;2023-01-25T06:08:25;37.10;;;20.60;;
12597;SDS011;6364;53.590;9.956;2023-01-25T06:10:51;33.65;;;18.38;;
12597;SDS011;6364;53.590;9.956;2023-01-25T06:13:16;39.72;;;19.02;;
12597;SDS011;6364;53.590;9.956;2023-01-25T06:15:42;33.67;;;18.90;;
12597;SDS011;6364;53.590;9.956;2023-01-25T06:18:07;38.92;;;20.25;;
12597;SDS011;6364;53.590;9.956;2023-01-25T06:20:33;39.08;;;19.98;;
12597;SDS011;6364;53.590;9.956;2023-01-25T06:22:58;36.08;;;19.15;;
12597;SDS011;6364;53.590;9.956;2023-01-25T06:25:24;35.38;;;18.98;;
12597;SDS011;6364;53.590;9.956;2023-01-25T06:27:49;35.35;;;18.55;;
12597;SDS011;6364;53.590;9.956;2023-01-25T06:30:14;34.30;;;19.10;;
12597;SDS011;6364;53.590;9.956;2023-01-25T06:32:40;35.97;;;18.73;;
12597;SDS011;6364;53.590;9.956;2023-01-25T06:35:05;32.13;;;18.23;;
12597;SDS011;6364;53.590;9.956;2023-01-25T06:37:31;38.45;;;19.23;;
12597;SDS011;6364;53.590;9.956;2023-01-25T06:39:56;35.97;;;19.23;;
12597;SDS011;6364;53.590;9.956;2023-01-25T06:42:24;32.55;;;17.15;;
12597;SDS011;6364;53.590;9.956;2023-01-25T06:44:50;35.78;;;17.23;;
12597;SDS011;6364;53.590;9.956;2023-01-25T06:47:15;33.55;;;18.10;;
12597;SDS011;6364;53.590;9.956;2023-01-25T06:49:40;32.25;;;17.42;;
12597;SDS011;6364;53.590;9.956;2023-01-25T06:52:06;34.55;;;18.25;;
12597;SDS011;6364;53.590;9.956;2023-01-25T06:54:32;36.47;;;18.10;;
12597;SDS011;6364;53.590;9.956;2023-01-25T06:56:57;35.03;;;18.42;;
12597;SDS011;6364;53.590;9.956;2023-01-25T06:59:23;34.67;;;17.85;;
12597;SDS011;6364;53.590;9.956;2023-01-25T07:01:48;39.90;;;19.30;;
12597;SDS011;6364;53.590;9.956;2023-01-25T07:04:14;34.20;;;18.48;;
12597;SDS011;6364;53.590;9.956;2023-01-25T07:06:39;31.67;;;17.75;;
12597;SDS011;6364;53.590;9.956;2023-01-25T07:09:05;34.45;;;17.83;;
12597;SDS011;6364;53.590;9.956;2023-01-25T07:11:32;35.05;;;17.65;;
12597;SDS011;6364;53.590;9.956;2023-01-25T07:13:57;35.25;;;18.08;;
12597;SDS011;6364;53.590;9.956;2023-01-25T07:16:24;34.03;;;17.48;;
12597;SDS011;6364;53.590;9.956;2023-01-25T07:18:49;38.42;;;19.20;;
12597;SDS011;6364;53.590;9.956;2023-01-25T07:21:16;35.15;;;18.25;;
12597;SDS011;6364;53.590;9.956;2023-01-25T07:23:42;35.70;;;18.45;;
12597;SDS011;6364;53.590;9.956;2023-01-25T07:26:15;34.60;;;18.08;;
12597;SDS011;6364;53.590;9.956;2023-01-25T07:28:44;33.25;;;17.67;;
12597;SDS011;6364;53.590;9.956;2023-01-25T07:31:10;35.45;;;19.73;;
12597;SDS011;6364;53.590;9.956;2023-01-25T07:33:36;36.50;;;18.55;;
12597;SDS011;6364;53.590;9.956;2023-01-25T07:36:01;35.75;;;19.10;;
12597;SDS011;6364;53.590;9.956;2023-01-25T07:38:28;33.63;;;17.90;;
12597;SDS011;6364;53.590;9.956;2023-01-25T07:40:54;35.30;;;19.38;;
12597;SDS011;6364;53.590;9.956;2023-01-25T07:43:19;34.97;;;18.35;;
12597;SDS011;6364;53.590;9.956;2023-01-25T07:45:44;35.10;;;18.52;;
12597;SDS011;6364;53.590;9.956;2023-01-25T07:48:13;36.55;;;18.73;;
12597;SDS011;6364;53.590;9.956;2023-01-25T07:50:39;40.15;;;21.02;;
12597;SDS011;6364;53.590;9.956;2023-01-25T07:53:05;38.75;;;19.70;;
12597;SDS011;6364;53.590;9.956;2023-01-25T07:55:33;39.72;;;20.25;;
12597;SDS011;6364;53.590;9.956;2023-01-25T07:57:59;38.53;;;19.70;;
12597;SDS011;6364;53.590;9.956;2023-01-25T08:00:24;38.63;;;20.48;;
12597;SDS011;6364;53.590;9.956;2023-01-25T08:02:50;37.75;;;19.73;;
12597;SDS011;6364;53.590;9.956;2023-01-25T08:05:16;37.40;;;20.60;;
12597;SDS011;6364;53.590;9.956;2023-01-25T08:07:41;38.42;;;20.75;;
12597;SDS011;6364;53.590;9.956;2023-01-25T08:10:07;37.20;;;19.90;;
12597;SDS011;6364;53.590;9.956;2023-01-25T08:12:32;44.45;;;21.02;;
12597;SDS011;6364;53.590;9.956;2023-01-25T08:14:58;36.33;;;20.23;;
12597;SDS011;6364;53.590;9.956;2023-01-25T08:17:24;36.95;;;20.42;;
12597;SDS011;6364;53.590;9.956;2023-01-25T08:19:55;41.45;;;20.58;;
12597;SDS011;6364;53.590;9.956;2023-01-25T08:22:24;39.42;;;21.77;;
12597;SDS011;6364;53.590;9.956;2023-01-25T08:24:49;35.72;;;19.98;;
12597;SDS011;6364;53.590;9.956;2023-01-25T08:27:14;40.75;;;21.67;;
12597;SDS011;6364;53.590;9.956;2023-01-25T08:29:40;37.42;;;19.77;;
12597;SDS011;6364;53.590;9.956;2023-01-25T08:32:05;40.55;;;20.20;;
12597;SDS011;6364;53.590;9.956;2023-01-25T08:34:31;45.45;;;19.67;;
12597;SDS011;6364;53.590;9.956;2023-01-25T08:36:57;41.45;;;20.95;;
12597;SDS011;6364;53.590;9.956;2023-01-25T08:39:23;38.20;;;20.40;;
12597;SDS011;6364;53.590;9.956;2023-01-25T08:41:48;38.92;;;20.35;;
12597;SDS011;6364;53.590;9.956;2023-01-25T08:44:13;41.72;;;21.42;;
12597;SDS011;6364;53.590;9.956;2023-01-25T08:46:39;38.35;;;21.10;;
12597;SDS011;6364;53.590;9.956;2023-01-25T08:49:04;40.85;;;21.70;;
12597;SDS011;6364;53.590;9.956;2023-01-25T08:51:30;39.80;;;20.52;;
12597;SDS011;6364;53.590;9.956;2023-01-25T08:53:56;44.47;;;22.30;;
12597;SDS011;6364;53.590;9.956;2023-01-25T08:56:21;40.22;;;20.60;;
12597;SDS011;6364;53.590;9.956;2023-01-25T08:58:47;38.60;;;21.02;;
12597;SDS011;6364;53.590;9.956;2023-01-25T09:01:14;42.08;;;21.63;;
12597;SDS011;6364;53.590;9.956;2023-01-25T09:03:41;43.05;;;21.30;;
12597;SDS011;6364;53.590;9.956;2023-01-25T09:06:12;39.30;;;21.85;;
12597;SDS011;6364;53.590;9.956;2023-01-25T09:08:38;39.55;;;20.90;;
12597;SDS011;6364;53.590;9.956;2023-01-25T09:11:04;40.42;;;21.05;;
12597;SDS011;6364;53.590;9.956;2023-01-25T09:13:33;39.50;;;20.65;;
12597;SDS011;6364;53.590;9.956;2023-01-25T09:16:02;38.42;;;19.63;;
12597;SDS011;6364;53.590;9.956;2023-01-25T09:18:29;41.08;;;21.65;;
12597;SDS011;6364;53.590;9.956;2023-01-25T09:20:55;44.45;;;21.67;;
12597;SDS011;6364;53.590;9.956;2023-01-25T09:23:22;42.95;;;21.77;;
12597;SDS011;6364;53.590;9.956;2023-01-25T09:25:48;42.80;;;22.17;;
12597;SDS011;6364;53.590;9.956;2023-01-25T09:28:23;45.75;;;21.48;;
12597;SDS011;6364;53.590;9.956;2023-01-25T09:30:53;47.60;;;23.15;;
12597;SDS011;6364;53.590;9.956;2023-01-25T09:33:20;46.97;;;22.25;;
12597;SDS011;6364;53.590;9.956;2023-01-25T09:35:48;48.92;;;23.00;;
12597;SDS011;6364;53.590;9.956;2023-01-25T09:38:14;44.38;;;23.55;;
12597;SDS011;6364;53.590;9.956;2023-01-25T09:40:39;44.80;;;22.90;;
12597;SDS011;6364;53.590;9.956;2023-01-25T09:43:09;47.38;;;23.15;;
12597;SDS011;6364;53.590;9.956;2023-01-25T09:45:38;52.08;;;23.75;;
12597;SDS011;6364;53.590;9.956;2023-01-25T09:48:09;49.92;;;23.88;;
12597;SDS011;6364;53.590;9.956;2023-01-25T09:50:46;51.38;;;25.27;;
12597;SDS011;6364;53.590;9.956;2023-01-25T09:53:38;55.45;;;26.45;;
12597;SDS011;6364;53.590;9.956;2023-01-25T09:56:10;52.25;;;24.65;;
12597;SDS011;6364;53.590;9.956;2023-01-25T09:58:39;55.25;;;25.85;;
12597;SDS011;6364;53.590;9.956;2023-01-25T10:01:19;53.83;;;25.73;;
12597;SDS011;6364;53.590;9.956;2023-01-25T10:04:20;49.55;;;25.77;;
12597;SDS011;6364;53.590;9.956;2023-01-25T10:06:52;54.63;;;27.50;;
12597;SDS011;6364;53.590;9.956;2023-01-25T10:09:42;57.63;;;28.13;;
12597;SDS011;6364;53.590;9.956;2023-01-25T10:12:17;55.03;;;27.38;;
12597;SDS011;6364;53.590;9.956;2023-01-25T10:14:45;59.90;;;28.33;;
12597;SDS011;6364;53.590;9.956;2023-01-25T10:19:46;54.58;;;27.27;;
12597;SDS011;6364;53.590;9.956;2023-01-25T10:22:23;59.80;;;28.23;;
12597;SDS011;6364;53.590;9.956;2023-01-25T10:27:42;62.88;;;28.40;;
12597;SDS011;6364;53.590;9.956;2023-01-25T10:32:57;64.18;;;31.05;;
12597;SDS011;6364;53.590;9.956;2023-01-25T10:35:26;66.15;;;31.98;;
12597;SDS011;6364;53.590;9.956;2023-01-25T10:37:55;63.30;;;30.60;;
12597;SDS011;6364;53.590;9.956;2023-01-25T10:40:23;68.72;;;31.38;;
12597;SDS011;6364;53.590;9.956;2023-01-25T10:42:55;66.03;;;31.88;;
12597;SDS011;6364;53.590;9.956;2023-01-25T10:45:24;63.90;;;32.47;;
12597;SDS011;6364;53.590;9.956;2023-01-25T10:47:51;66.40;;;33.58;;
12597;SDS011;6364;53.590;9.956;2023-01-25T10:58:36;67.40;;;31.05;;
12597;SDS011;6364;53.590;9.956;2023-01-25T11:01:03;61.35;;;29.55;;
12597;SDS011;6364;53.590;9.956;2023-01-25T11:03:38;70.72;;;33.67;;
12597;SDS011;6364;53.590;9.956;2023-01-25T11:06:08;62.17;;;30.38;;
12597;SDS011;6364;53.590;9.956;2023-01-25T11:08:38;67.25;;;32.40;;
12597;SDS011;6364;53.590;9.956;2023-01-25T11:11:11;64.95;;;31.77;;
12597;SDS011;6364;53.590;9.956;2023-01-25T11:13:39;59.15;;;28.83;;
12597;SDS011;6364;53.590;9.956;2023-01-25T11:18:53;60.97;;;29.92;;
12597;SDS011;6364;53.590;9.956;2023-01-25T11:21:21;62.65;;;29.98;;
12597;SDS011;6364;53.590;9.956;2023-01-25T11:26:28;61.40;;;30.45;;
12597;SDS011;6364;53.590;9.956;2023-01-25T11:29:10;55.85;;;29.05;;
12597;SDS011;6364;53.590;9.956;2023-01-25T11:31:37;61.38;;;28.38;;
12597;SDS011;6364;53.590;9.956;2023-01-25T11:34:07;64.68;;;29.63;;
12597;SDS011;6364;53.590;9.956;2023-01-25T11:36:42;53.05;;;25.73;;
12597;SDS011;6364;53.590;9.956;2023-01-25T11:39:33;58.15;;;28.55;;
12597;SDS011;6364;53.590;9.956;2023-01-25T11:42:42;59.70;;;27.80;;
12597;SDS011;6364;53.590;9.956;2023-01-25T11:51:05;58.80;;;28.13;;
12597;SDS011;6364;53.590;9.956;2023-01-25T11:56:30;53.58;;;27.10;;
12597;SDS011;6364;53.590;9.956;2023-01-25T12:07:41;53.72;;;28.88;;
12597;SDS011;6364;53.590;9.956;2023-01-25T12:10:21;55.35;;;28.13;;
12597;SDS011;6364;53.590;9.956;2023-01-25T12:15:53;56.40;;;27.27;;
12597;SDS011;6364;53.590;9.956;2023-01-25T12:18:26;53.65;;;26.88;;
12597;SDS011;6364;53.590;9.956;2023-01-25T12:21:01;51.40;;;25.55;;
12597;SDS011;6364;53.590;9.956;2023-01-25T12:26:41;50.85;;;25.42;;
12597;SDS011;6364;53.590;9.956;2023-01-25T12:29:25;53.92;;;25.77;;
12597;SDS011;6364;53.590;9.956;2023-01-25T12:31:55;54.40;;;27.45;;
12597;SDS011;6364;53.590;9.956;2023-01-25T12:34:31;52.90;;;26.52;;
12597;SDS011;6364;53.590;9.956;2023-01-25T12:37:02;53.88;;;25.50;;
12597;SDS011;6364;53.590;9.956;2023-01-25T12:39:51;50.95;;;26.27;;
12597;SDS011;6364;53.590;9.956;2023-01-25T12:42:21;48.65;;;24.92;;
12597;SDS011;6364;53.590;9.956;2023-01-25T12:45:35;54.83;;;25.60;;
12597;SDS011;6364;53.590;9.956;2023-01-25T12:47:48;47.10;;;24.20;;
12597;SDS011;6364;53.590;9.956;2023-01-25T12:50:19;55.92;;;25.73;;
12597;SDS011;6364;53.590;9.956;2023-01-25T12:55:18;47.05;;;25.20;;
12597;SDS011;6364;53.590;9.956;2023-01-25T13:00:36;48.25;;;24.60;;
12597;SDS011;6364;53.590;9.956;2023-01-25T13:03:36;37.93;;;18.33;;
12597;SDS011;6364;53.590;9.956;2023-01-25T13:06:19;51.10;;;25.45;;
12597;SDS011;6364;53.590;9.956;2023-01-25T13:11:51;53.13;;;25.00;;
12597;SDS011;6364;53.590;9.956;2023-01-25T13:16:51;48.58;;;24.48;;
12597;SDS011;6364;53.590;9.956;2023-01-25T13:19:59;50.08;;;25.27;;
12597;SDS011;6364;53.590;9.956;2023-01-25T13:22:07;54.22;;;25.42;;
12597;SDS011;6364;53.590;9.956;2023-01-25T13:24:34;50.90;;;26.02;;
12597;SDS011;6364;53.590;9.956;2023-01-25T13:27:28;51.75;;;24.80;;
12597;SDS011;6364;53.590;9.956;2023-01-25T13:29:56;54.60;;;25.55;;
12597;SDS011;6364;53.590;9.956;2023-01-25T13:37:23;50.10;;;25.40;;
12597;SDS011;6364;53.590;9.956;2023-01-25T13:42:29;55.20;;;27.05;;
12597;SDS011;6364;53.590;9.956;2023-01-25T13:44:56;44.60;;;21.85;;
12597;SDS011;6364;53.590;9.956;2023-01-25T13:47:33;52.00;;;26.65;;
12597;SDS011;6364;53.590;9.956;2023-01-25T13:50:19;48.15;;;24.80;;
12597;SDS011;6364;53.590;9.956;2023-01-25T13:53:16;50.22;;;25.67;;
12597;SDS011;6364;53.590;9.956;2023-01-25T13:55:44;54.22;;;25.83;;
12597;SDS011;6364;53.590;9.956;2023-01-25T14:00:56;51.97;;;25.20;;
12597;SDS011;6364;53.590;9.956;2023-01-25T14:03:30;50.67;;;26.20;;
12597;SDS011;6364;53.590;9.956;2023-01-25T14:05:58;55.70;;;27.83;;
12597;SDS011;6364;53.590;9.956;2023-01-25T14:08:26;55.53;;;27.88;;
12597;SDS011;6364;53.590;9.956;2023-01-25T14:10:52;61.40;;;28.50;;
12597;SDS011;6364;53.590;9.956;2023-01-25T14:13:17;58.33;;;28.17;;
12597;SDS011;6364;53.590;9.956;2023-01-25T14:15:53;61.00;;;27.75;;
12597;SDS011;6364;53.590;9.956;2023-01-25T14:18:30;57.05;;;27.08;;
12597;SDS011;6364;53.590;9.956;2023-01-25T14:23:36;61.03;;;27.75;;
12597;SDS011;6364;53.590;9.956;2023-01-25T14:26:02;59.15;;;27.35;;
12597;SDS011;6364;53.590;9.956;2023-01-25T14:28:28;61.42;;;28.45;;
12597;SDS011;6364;53.590;9.956;2023-01-25T14:30:54;63.20;;;28.98;;
12597;SDS011;6364;53.590;9.956;2023-01-25T14:33:22;61.58;;;29.10;;
12597;SDS011;6364;53.590;9.956;2023-01-25T14:35:50;76.20;;;32.97;;
12597;SDS011;6364;53.590;9.956;2023-01-25T14:41:01;69.32;;;31.00;;
12597;SDS011;6364;53.590;9.956;2023-01-25T14:43:36;70.80;;;31.23;;
12597;SDS011;6364;53.590;9.956;2023-01-25T14:48:49;69.88;;;32.08;;
12597;SDS011;6364;53.590;9.956;2023-01-25T14:51:19;68.72;;;31.13;;
12597;SDS011;6364;53.590;9.956;2023-01-25T14:53:50;75.37;;;32.13;;
12597;SDS011;6364;53.590;9.956;2023-01-25T14:58:58;72.65;;;31.40;;
12597;SDS011;6364;53.590;9.956;2023-01-25T15:01:27;73.28;;;31.05;;
12597;SDS011;6364;53.590;9.956;2023-01-25T15:03:54;73.13;;;33.75;;
12597;SDS011;6364;53.590;9.956;2023-01-25T15:06:20;80.05;;;33.30;;
12597;SDS011;6364;53.590;9.956;2023-01-25T15:08:45;81.25;;;34.60;;
12597;SDS011;6364;53.590;9.956;2023-01-25T15:11:29;74.88;;;31.20;;
12597;SDS011;6364;53.590;9.956;2023-01-25T15:14:17;76.70;;;31.48;;
12597;SDS011;6364;53.590;9.956;2023-01-25T15:16:44;79.13;;;34.50;;
12597;SDS011;6364;53.590;9.956;2023-01-25T15:19:25;77.07;;;32.65;;
12597;SDS011;6364;53.590;9.956;2023-01-25T15:21:54;74.30;;;33.28;;
12597;SDS011;6364;53.590;9.956;2023-01-25T15:24:23;76.95;;;33.83;;
12597;SDS011;6364;53.590;9.956;2023-01-25T15:26:50;84.13;;;32.88;;
12597;SDS011;6364;53.590;9.956;2023-01-25T15:29:17;69.85;;;30.08;;
12597;SDS011;6364;53.590;9.956;2023-01-25T15:31:45;68.95;;;30.65;;
12597;SDS011;6364;53.590;9.956;2023-01-25T15:34:15;74.55;;;31.50;;
12597;SDS011;6364;53.590;9.956;2023-01-25T15:36:42;66.50;;;27.42;;
12597;SDS011;6364;53.590;9.956;2023-01-25T15:39:11;73.20;;;29.15;;
12597;SDS011;6364;53.590;9.956;2023-01-25T15:44:07;76.22;;;31.55;;
12597;SDS011;6364;53.590;9.956;2023-01-25T15:46:32;77.45;;;31.67;;
12597;SDS011;6364;53.590;9.956;2023-01-25T15:48:58;70.68;;;30.02;;
12597;SDS011;6364;53.590;9.956;2023-01-25T15:51:24;63.40;;;26.77;;
12597;SDS011;6364;53.590;9.956;2023-01-25T15:53:49;67.78;;;27.58;;
12597;SDS011;6364;53.590;9.956;2023-01-25T15:56:16;65.40;;;27.23;;
12597;SDS011;6364;53.590;9.956;2023-01-25T15:58:46;67.70;;;27.67;;
12597;SDS011;6364;53.590;9.956;2023-01-25T16:01:14;63.38;;;25.13;;
12597;SDS011;6364;53.590;9.956;2023-01-25T16:03:39;65.50;;;25.20;;
12597;SDS011;6364;53.590;9.956;2023-01-25T16:06:27;68.95;;;28.23;;
12597;SDS011;6364;53.590;9.956;2023-01-25T16:08:58;69.97;;;28.17;;